sensor_id;sensor_type;location;lat;lon;timestamp;P1;durP1;ratioP1;P2;durP2;ratioP2
6406;SDS011;3236;51.022;6.818;2022-12-20T00:01:24;5.53;;;2.22;;
6406;SDS011;3236;51.022;6.818;2022-12-20T00:03:54;8.13;;;2.20;;
6406;SDS011;3236;51.022;6.818;2022-12-20T00:06:24;4.60;;;1.90;;
6406;SDS011;3236;51.022;6.818;2022-12-20T00:08:52;7.40;;;2.20;;
6406;SDS011;3236;51.022;6.818;2022-12-20T00:11:20;4.97;;;2.00;;
6406;SDS011;3236;51.022;6.818;2022-12-20T00:13:47;2.30;;;1.65;;
6406;SDS011;3236;51.022;6.818;2022-12-20T00:16:15;2.92;;;2.20;;
6406;SDS011;3236;51.022;6.818;2022-12-20T00:18:44;2.67;;;1.92;;
6406;SDS011;3236;51.022;6.818;2022-12-20T00:21:15;8.50;;;2.50;;
6406;SDS011;3236;51.022;6.818;2022-12-20T00:23:43;4.00;;;1.73;;
6406;SDS011;3236;51.022;6.818;2022-12-20T00:26:12;3.28;;;2.03;;
6406;SDS011;3236;51.022;6.818;2022-12-20T00:28:40;5.50;;;1.90;;
6406;SDS011;3236;51.022;6.818;2022-12-20T00:31:09;4.47;;;2.00;;
6406;SDS011;3236;51.022;6.818;2022-12-20T00:33:39;3.20;;;1.73;;
6406;SDS011;3236;51.022;6.818;2022-12-20T00:36:13;4.50;;;1.98;;
6406;SDS011;3236;51.022;6.818;2022-12-20T00:38:44;3.30;;;2.00;;
6406;SDS011;3236;51.022;6.818;2022-12-20T00:41:12;6.43;;;2.72;;
6406;SDS011;3236;51.022;6.818;2022-12-20T00:43:41;3.95;;;2.17;;
6406;SDS011;3236;51.022;6.818;2022-12-20T00:46:08;4.57;;;2.53;;
6406;SDS011;3236;51.022;6.818;2022-12-20T00:48:38;3.35;;;2.15;;
6406;SDS011;3236;51.022;6.818;2022-12-20T00:51:09;5.88;;;2.08;;
6406;SDS011;3236;51.022;6.818;2022-12-20T00:53:37;3.72;;;1.90;;
6406;SDS011;3236;51.022;6.818;2022-12-20T00:56:06;2.80;;;1.88;;
6406;SDS011;3236;51.022;6.818;2022-12-20T00:58:38;2.58;;;2.30;;
6406;SDS011;3236;51.022;6.818;2022-12-20T01:01:12;4.03;;;1.98;;
6406;SDS011;3236;51.022;6.818;2022-12-20T01:03:42;4.93;;;2.40;;
6406;SDS011;3236;51.022;6.818;2022-12-20T01:06:09;2.38;;;2.00;;
6406;SDS011;3236;51.022;6.818;2022-12-20T01:08:48;2.92;;;2.13;;
6406;SDS011;3236;51.022;6.818;2022-12-20T01:11:18;8.05;;;2.45;;
6406;SDS011;3236;51.022;6.818;2022-12-20T01:13:47;2.45;;;1.92;;
6406;SDS011;3236;51.022;6.818;2022-12-20T01:16:16;4.82;;;2.28;;
6406;SDS011;3236;51.022;6.818;2022-12-20T01:18:45;6.93;;;2.20;;
6406;SDS011;3236;51.022;6.818;2022-12-20T01:21:14;3.10;;;2.15;;
6406;SDS011;3236;51.022;6.818;2022-12-20T01:23:42;2.55;;;2.13;;
6406;SDS011;3236;51.022;6.818;2022-12-20T01:26:11;3.10;;;2.13;;
6406;SDS011;3236;51.022;6.818;2022-12-20T01:28:41;7.30;;;2.60;;
6406;SDS011;3236;51.022;6.818;2022-12-20T01:31:11;4.10;;;2.13;;
6406;SDS011;3236;51.022;6.818;2022-12-20T01:33:40;4.65;;;2.45;;
6406;SDS011;3236;51.022;6.818;2022-12-20T01:36:09;4.05;;;2.67;;
6406;SDS011;3236;51.022;6.818;2022-12-20T01:38:37;3.95;;;2.05;;
6406;SDS011;3236;51.022;6.818;2022-12-20T01:41:07;4.68;;;2.35;;
6406;SDS011;3236;51.022;6.818;2022-12-20T01:43:48;4.15;;;2.60;;
6406;SDS011;3236;51.022;6.818;2022-12-20T01:46:16;3.58;;;2.38;;
6406;SDS011;3236;51.022;6.818;2022-12-20T01:48:45;6.20;;;2.65;;
6406;SDS011;3236;51.022;6.818;2022-12-20T01:51:15;4.22;;;2.38;;
6406;SDS011;3236;51.022;6.818;2022-12-20T01:53:43;4.35;;;2.20;;
6406;SDS011;3236;51.022;6.818;2022-12-20T01:56:11;7.70;;;3.38;;
6406;SDS011;3236;51.022;6.818;2022-12-20T01:58:41;6.47;;;2.67;;
6406;SDS011;3236;51.022;6.818;2022-12-20T02:01:11;3.80;;;2.53;;
6406;SDS011;3236;51.022;6.818;2022-12-20T02:03:38;5.75;;;2.75;;
6406;SDS011;3236;51.022;6.818;2022-12-20T02:06:13;2.97;;;2.38;;
6406;SDS011;3236;51.022;6.818;2022-12-20T02:08:42;4.00;;;2.55;;
6406;SDS011;3236;51.022;6.818;2022-12-20T02:11:16;4.18;;;2.20;;
6406;SDS011;3236;51.022;6.818;2022-12-20T02:13:49;4.35;;;2.92;;
6406;SDS011;3236;51.022;6.818;2022-12-20T02:16:25;4.03;;;2.90;;
6406;SDS011;3236;51.022;6.818;2022-12-20T02:18:59;5.82;;;2.65;;
6406;SDS011;3236;51.022;6.818;2022-12-20T02:21:28;5.72;;;3.45;;
6406;SDS011;3236;51.022;6.818;2022-12-20T02:24:06;4.55;;;3.17;;
6406;SDS011;3236;51.022;6.818;2022-12-20T02:27:12;7.45;;;3.05;;
6406;SDS011;3236;51.022;6.818;2022-12-20T02:30:11;5.25;;;3.20;;
6406;SDS011;3236;51.022;6.818;2022-12-20T02:32:42;3.47;;;2.70;;
6406;SDS011;3236;51.022;6.818;2022-12-20T02:35:18;3.92;;;3.00;;
6406;SDS011;3236;51.022;6.818;2022-12-20T02:37:46;3.97;;;2.92;;
6406;SDS011;3236;51.022;6.818;2022-12-20T02:40:13;8.15;;;3.25;;
6406;SDS011;3236;51.022;6.818;2022-12-20T02:42:42;3.85;;;3.03;;
6406;SDS011;3236;51.022;6.818;2022-12-20T02:45:11;7.82;;;3.38;;
6406;SDS011;3236;51.022;6.818;2022-12-20T02:47:47;3.33;;;3.00;;
6406;SDS011;3236;51.022;6.818;2022-12-20T02:50:20;6.00;;;3.20;;
6406;SDS011;3236;51.022;6.818;2022-12-20T02:52:50;4.65;;;3.05;;
6406;SDS011;3236;51.022;6.818;2022-12-20T02:55:18;5.43;;;3.13;;
6406;SDS011;3236;51.022;6.818;2022-12-20T02:57:47;7.70;;;3.60;;
6406;SDS011;3236;51.022;6.818;2022-12-20T03:00:22;6.32;;;3.20;;
6406;SDS011;3236;51.022;6.818;2022-12-20T03:02:50;8.35;;;3.47;;
6406;SDS011;3236;51.022;6.818;2022-12-20T03:05:37;6.57;;;3.88;;
6406;SDS011;3236;51.022;6.818;2022-12-20T03:08:15;6.43;;;3.55;;
6406;SDS011;3236;51.022;6.818;2022-12-20T03:13:09;7.10;;;3.70;;
6406;SDS011;3236;51.022;6.818;2022-12-20T03:15:38;7.25;;;3.78;;
6406;SDS011;3236;51.022;6.818;2022-12-20T03:18:05;10.07;;;3.58;;
6406;SDS011;3236;51.022;6.818;2022-12-20T03:20:33;6.40;;;3.83;;
6406;SDS011;3236;51.022;6.818;2022-12-20T03:23:06;7.38;;;3.30;;
6406;SDS011;3236;51.022;6.818;2022-12-20T03:25:34;5.93;;;3.20;;
6406;SDS011;3236;51.022;6.818;2022-12-20T03:28:01;5.70;;;3.53;;
6406;SDS011;3236;51.022;6.818;2022-12-20T03:30:29;11.10;;;3.50;;
6406;SDS011;3236;51.022;6.818;2022-12-20T03:32:58;7.85;;;3.58;;
6406;SDS011;3236;51.022;6.818;2022-12-20T03:35:28;4.60;;;3.63;;
6406;SDS011;3236;51.022;6.818;2022-12-20T03:37:56;5.18;;;3.50;;
6406;SDS011;3236;51.022;6.818;2022-12-20T03:40:26;5.13;;;3.58;;
6406;SDS011;3236;51.022;6.818;2022-12-20T03:42:54;5.65;;;3.28;;
6406;SDS011;3236;51.022;6.818;2022-12-20T03:45:21;4.00;;;3.17;;
6406;SDS011;3236;51.022;6.818;2022-12-20T03:47:49;8.00;;;3.47;;
6406;SDS011;3236;51.022;6.818;2022-12-20T03:50:18;5.18;;;3.45;;
6406;SDS011;3236;51.022;6.818;2022-12-20T03:52:46;4.20;;;3.40;;
6406;SDS011;3236;51.022;6.818;2022-12-20T03:55:14;5.05;;;3.20;;
6406;SDS011;3236;51.022;6.818;2022-12-20T03:57:41;4.30;;;3.83;;
6406;SDS011;3236;51.022;6.818;2022-12-20T04:00:12;6.25;;;3.85;;
6406;SDS011;3236;51.022;6.818;2022-12-20T04:02:40;6.32;;;3.85;;
6406;SDS011;3236;51.022;6.818;2022-12-20T04:05:08;7.25;;;4.22;;
6406;SDS011;3236;51.022;6.818;2022-12-20T04:07:37;6.05;;;3.72;;
6406;SDS011;3236;51.022;6.818;2022-12-20T04:10:05;8.75;;;4.00;;
6406;SDS011;3236;51.022;6.818;2022-12-20T04:12:33;6.07;;;4.40;;
6406;SDS011;3236;51.022;6.818;2022-12-20T04:15:00;4.68;;;4.03;;
6406;SDS011;3236;51.022;6.818;2022-12-20T04:17:28;6.88;;;4.28;;
6406;SDS011;3236;51.022;6.818;2022-12-20T04:19:55;8.18;;;4.10;;
6406;SDS011;3236;51.022;6.818;2022-12-20T04:22:23;6.53;;;4.45;;
6406;SDS011;3236;51.022;6.818;2022-12-20T04:24:55;8.00;;;3.90;;
6406;SDS011;3236;51.022;6.818;2022-12-20T04:27:22;6.45;;;4.35;;
6406;SDS011;3236;51.022;6.818;2022-12-20T04:29:53;7.72;;;4.35;;
6406;SDS011;3236;51.022;6.818;2022-12-20T04:32:20;4.72;;;4.22;;
6406;SDS011;3236;51.022;6.818;2022-12-20T04:34:48;11.32;;;4.68;;
6406;SDS011;3236;51.022;6.818;2022-12-20T04:37:15;5.65;;;4.25;;
6406;SDS011;3236;51.022;6.818;2022-12-20T04:39:43;10.02;;;5.00;;
6406;SDS011;3236;51.022;6.818;2022-12-20T04:42:12;6.95;;;4.55;;
6406;SDS011;3236;51.022;6.818;2022-12-20T04:44:40;7.88;;;4.35;;
6406;SDS011;3236;51.022;6.818;2022-12-20T04:47:08;8.93;;;5.03;;
6406;SDS011;3236;51.022;6.818;2022-12-20T04:49:36;10.73;;;5.10;;
6406;SDS011;3236;51.022;6.818;2022-12-20T04:52:04;9.25;;;5.25;;
6406;SDS011;3236;51.022;6.818;2022-12-20T04:54:48;6.95;;;4.95;;
6406;SDS011;3236;51.022;6.818;2022-12-20T04:57:17;10.50;;;5.67;;
6406;SDS011;3236;51.022;6.818;2022-12-20T04:59:44;8.85;;;5.15;;
6406;SDS011;3236;51.022;6.818;2022-12-20T05:02:15;6.03;;;4.88;;
6406;SDS011;3236;51.022;6.818;2022-12-20T05:04:42;7.55;;;4.72;;
6406;SDS011;3236;51.022;6.818;2022-12-20T05:07:10;6.28;;;5.00;;
6406;SDS011;3236;51.022;6.818;2022-12-20T05:09:37;8.70;;;5.00;;
6406;SDS011;3236;51.022;6.818;2022-12-20T05:12:05;9.38;;;5.35;;
6406;SDS011;3236;51.022;6.818;2022-12-20T05:14:34;9.77;;;5.63;;
6406;SDS011;3236;51.022;6.818;2022-12-20T05:17:01;10.25;;;5.28;;
6406;SDS011;3236;51.022;6.818;2022-12-20T05:19:29;9.68;;;5.13;;
6406;SDS011;3236;51.022;6.818;2022-12-20T05:21:56;9.50;;;5.75;;
6406;SDS011;3236;51.022;6.818;2022-12-20T05:24:41;11.75;;;5.55;;
6406;SDS011;3236;51.022;6.818;2022-12-20T05:27:26;10.40;;;5.15;;
6406;SDS011;3236;51.022;6.818;2022-12-20T05:29:56;9.15;;;5.13;;
6406;SDS011;3236;51.022;6.818;2022-12-20T05:32:23;8.85;;;4.90;;
6406;SDS011;3236;51.022;6.818;2022-12-20T05:34:50;6.97;;;5.32;;
6406;SDS011;3236;51.022;6.818;2022-12-20T05:37:18;6.53;;;5.30;;
6406;SDS011;3236;51.022;6.818;2022-12-20T05:39:45;8.00;;;4.78;;
6406;SDS011;3236;51.022;6.818;2022-12-20T05:42:13;13.18;;;4.97;;
6406;SDS011;3236;51.022;6.818;2022-12-20T05:44:40;7.60;;;4.45;;
6406;SDS011;3236;51.022;6.818;2022-12-20T05:47:09;6.80;;;4.22;;
6406;SDS011;3236;51.022;6.818;2022-12-20T05:49:37;7.90;;;4.65;;
6406;SDS011;3236;51.022;6.818;2022-12-20T05:52:04;7.82;;;4.18;;
6406;SDS011;3236;51.022;6.818;2022-12-20T05:54:32;9.82;;;3.88;;
6406;SDS011;3236;51.022;6.818;2022-12-20T05:57:02;7.00;;;3.85;;
6406;SDS011;3236;51.022;6.818;2022-12-20T05:59:30;5.97;;;3.35;;
6406;SDS011;3236;51.022;6.818;2022-12-20T06:01:57;6.40;;;3.15;;
6406;SDS011;3236;51.022;6.818;2022-12-20T06:04:25;5.70;;;3.35;;
6406;SDS011;3236;51.022;6.818;2022-12-20T06:06:53;8.73;;;3.83;;
6406;SDS011;3236;51.022;6.818;2022-12-20T06:09:21;6.28;;;3.95;;
6406;SDS011;3236;51.022;6.818;2022-12-20T06:11:48;5.15;;;3.55;;
6406;SDS011;3236;51.022;6.818;2022-12-20T06:14:15;6.15;;;3.80;;
6406;SDS011;3236;51.022;6.818;2022-12-20T06:16:43;8.45;;;3.63;;
6406;SDS011;3236;51.022;6.818;2022-12-20T06:19:10;8.48;;;3.78;;
6406;SDS011;3236;51.022;6.818;2022-12-20T06:21:39;9.52;;;4.30;;
6406;SDS011;3236;51.022;6.818;2022-12-20T06:24:07;6.82;;;4.22;;
6406;SDS011;3236;51.022;6.818;2022-12-20T06:26:34;7.30;;;4.32;;
6406;SDS011;3236;51.022;6.818;2022-12-20T06:29:02;7.75;;;4.30;;
6406;SDS011;3236;51.022;6.818;2022-12-20T06:31:31;7.18;;;4.47;;
6406;SDS011;3236;51.022;6.818;2022-12-20T06:33:59;8.32;;;4.60;;
6406;SDS011;3236;51.022;6.818;2022-12-20T06:36:26;13.35;;;4.72;;
6406;SDS011;3236;51.022;6.818;2022-12-20T06:38:58;8.52;;;5.18;;
6406;SDS011;3236;51.022;6.818;2022-12-20T06:41:26;8.15;;;4.63;;
6406;SDS011;3236;51.022;6.818;2022-12-20T06:43:53;15.10;;;5.95;;
6406;SDS011;3236;51.022;6.818;2022-12-20T06:46:20;13.45;;;5.70;;
6406;SDS011;3236;51.022;6.818;2022-12-20T06:48:48;12.52;;;5.80;;
6406;SDS011;3236;51.022;6.818;2022-12-20T06:51:15;10.82;;;5.18;;
6406;SDS011;3236;51.022;6.818;2022-12-20T06:53:45;14.10;;;5.63;;
6406;SDS011;3236;51.022;6.818;2022-12-20T06:56:15;11.50;;;5.55;;
6406;SDS011;3236;51.022;6.818;2022-12-20T06:58:45;10.27;;;5.50;;
6406;SDS011;3236;51.022;6.818;2022-12-20T07:01:13;13.55;;;6.13;;
6406;SDS011;3236;51.022;6.818;2022-12-20T07:03:41;8.80;;;4.90;;
6406;SDS011;3236;51.022;6.818;2022-12-20T07:06:09;8.57;;;4.68;;
6406;SDS011;3236;51.022;6.818;2022-12-20T07:08:36;11.90;;;4.53;;
6406;SDS011;3236;51.022;6.818;2022-12-20T07:11:04;10.75;;;4.80;;
6406;SDS011;3236;51.022;6.818;2022-12-20T07:13:34;9.25;;;4.85;;
6406;SDS011;3236;51.022;6.818;2022-12-20T07:16:01;11.90;;;4.75;;
6406;SDS011;3236;51.022;6.818;2022-12-20T07:18:29;8.60;;;4.47;;
6406;SDS011;3236;51.022;6.818;2022-12-20T07:20:59;6.30;;;4.10;;
6406;SDS011;3236;51.022;6.818;2022-12-20T07:23:27;13.98;;;4.75;;
6406;SDS011;3236;51.022;6.818;2022-12-20T07:25:54;10.45;;;4.43;;
6406;SDS011;3236;51.022;6.818;2022-12-20T07:28:23;7.88;;;4.85;;
6406;SDS011;3236;51.022;6.818;2022-12-20T07:30:52;8.38;;;4.28;;
6406;SDS011;3236;51.022;6.818;2022-12-20T07:33:19;7.18;;;4.68;;
6406;SDS011;3236;51.022;6.818;2022-12-20T07:35:47;8.43;;;5.20;;
6406;SDS011;3236;51.022;6.818;2022-12-20T07:38:15;9.27;;;4.93;;
6406;SDS011;3236;51.022;6.818;2022-12-20T07:40:43;13.05;;;5.07;;
6406;SDS011;3236;51.022;6.818;2022-12-20T07:43:13;10.02;;;4.85;;
6406;SDS011;3236;51.022;6.818;2022-12-20T07:45:41;17.60;;;5.28;;
6406;SDS011;3236;51.022;6.818;2022-12-20T07:48:18;13.77;;;6.20;;
6406;SDS011;3236;51.022;6.818;2022-12-20T07:50:46;11.25;;;5.68;;
6406;SDS011;3236;51.022;6.818;2022-12-20T07:53:22;9.48;;;6.00;;
6406;SDS011;3236;51.022;6.818;2022-12-20T07:56:05;14.23;;;6.03;;
6406;SDS011;3236;51.022;6.818;2022-12-20T07:58:37;10.95;;;5.43;;
6406;SDS011;3236;51.022;6.818;2022-12-20T08:01:05;12.00;;;5.38;;
6406;SDS011;3236;51.022;6.818;2022-12-20T08:03:36;9.23;;;6.07;;
6406;SDS011;3236;51.022;6.818;2022-12-20T08:06:05;10.07;;;5.63;;
6406;SDS011;3236;51.022;6.818;2022-12-20T08:08:34;12.00;;;5.43;;
6406;SDS011;3236;51.022;6.818;2022-12-20T08:11:02;11.25;;;5.30;;
6406;SDS011;3236;51.022;6.818;2022-12-20T08:13:30;10.98;;;5.32;;
6406;SDS011;3236;51.022;6.818;2022-12-20T08:15:58;9.88;;;5.32;;
6406;SDS011;3236;51.022;6.818;2022-12-20T08:18:26;15.10;;;6.07;;
6406;SDS011;3236;51.022;6.818;2022-12-20T08:20:55;12.13;;;4.95;;
6406;SDS011;3236;51.022;6.818;2022-12-20T08:23:22;10.70;;;6.13;;
6406;SDS011;3236;51.022;6.818;2022-12-20T08:25:50;13.23;;;6.32;;
6406;SDS011;3236;51.022;6.818;2022-12-20T08:28:20;12.07;;;5.88;;
6406;SDS011;3236;51.022;6.818;2022-12-20T08:30:48;15.00;;;5.15;;
6406;SDS011;3236;51.022;6.818;2022-12-20T08:33:15;11.32;;;5.53;;
6406;SDS011;3236;51.022;6.818;2022-12-20T08:35:43;14.18;;;5.97;;
6406;SDS011;3236;51.022;6.818;2022-12-20T08:38:15;11.38;;;4.97;;
6406;SDS011;3236;51.022;6.818;2022-12-20T08:40:43;10.15;;;4.82;;
6406;SDS011;3236;51.022;6.818;2022-12-20T08:43:10;10.25;;;4.32;;
6406;SDS011;3236;51.022;6.818;2022-12-20T08:45:41;10.55;;;5.00;;
6406;SDS011;3236;51.022;6.818;2022-12-20T08:48:08;8.93;;;4.43;;
6406;SDS011;3236;51.022;6.818;2022-12-20T08:50:36;13.57;;;4.85;;
6406;SDS011;3236;51.022;6.818;2022-12-20T08:53:04;9.90;;;4.57;;
6406;SDS011;3236;51.022;6.818;2022-12-20T08:55:32;9.65;;;4.18;;
6406;SDS011;3236;51.022;6.818;2022-12-20T08:58:02;11.20;;;4.40;;
6406;SDS011;3236;51.022;6.818;2022-12-20T09:00:35;7.20;;;3.95;;
6406;SDS011;3236;51.022;6.818;2022-12-20T09:03:02;6.47;;;4.57;;
6406;SDS011;3236;51.022;6.818;2022-12-20T09:05:31;14.75;;;4.78;;
6406;SDS011;3236;51.022;6.818;2022-12-20T09:08:09;10.77;;;4.95;;
6406;SDS011;3236;51.022;6.818;2022-12-20T09:10:40;9.63;;;5.38;;
6406;SDS011;3236;51.022;6.818;2022-12-20T09:13:12;8.43;;;4.80;;
6406;SDS011;3236;51.022;6.818;2022-12-20T09:15:48;9.43;;;4.55;;
6406;SDS011;3236;51.022;6.818;2022-12-20T09:18:16;8.70;;;4.18;;
6406;SDS011;3236;51.022;6.818;2022-12-20T09:20:43;8.60;;;4.32;;
6406;SDS011;3236;51.022;6.818;2022-12-20T09:23:11;6.75;;;4.28;;
6406;SDS011;3236;51.022;6.818;2022-12-20T09:25:41;8.60;;;4.20;;
6406;SDS011;3236;51.022;6.818;2022-12-20T09:28:08;10.07;;;4.50;;
6406;SDS011;3236;51.022;6.818;2022-12-20T09:30:36;9.30;;;4.35;;
6406;SDS011;3236;51.022;6.818;2022-12-20T09:33:03;6.15;;;4.43;;
6406;SDS011;3236;51.022;6.818;2022-12-20T09:35:31;7.85;;;4.65;;
6406;SDS011;3236;51.022;6.818;2022-12-20T09:37:58;5.72;;;3.88;;
6406;SDS011;3236;51.022;6.818;2022-12-20T09:40:27;7.05;;;3.80;;
6406;SDS011;3236;51.022;6.818;2022-12-20T09:42:58;8.27;;;4.22;;
6406;SDS011;3236;51.022;6.818;2022-12-20T09:45:28;10.15;;;4.20;;
6406;SDS011;3236;51.022;6.818;2022-12-20T09:48:02;6.95;;;3.83;;
6406;SDS011;3236;51.022;6.818;2022-12-20T09:50:35;6.35;;;4.20;;
6406;SDS011;3236;51.022;6.818;2022-12-20T09:53:10;6.95;;;3.90;;
6406;SDS011;3236;51.022;6.818;2022-12-20T09:55:42;8.88;;;4.30;;
6406;SDS011;3236;51.022;6.818;2022-12-20T09:58:35;7.38;;;4.30;;
6406;SDS011;3236;51.022;6.818;2022-12-20T10:01:10;8.68;;;4.03;;
6406;SDS011;3236;51.022;6.818;2022-12-20T10:03:42;7.28;;;4.22;;
6406;SDS011;3236;51.022;6.818;2022-12-20T10:06:13;11.13;;;4.13;;
6406;SDS011;3236;51.022;6.818;2022-12-20T10:08:44;8.98;;;4.90;;
6406;SDS011;3236;51.022;6.818;2022-12-20T10:11:22;6.10;;;4.05;;
6406;SDS011;3236;51.022;6.818;2022-12-20T10:14:11;6.85;;;4.05;;
6406;SDS011;3236;51.022;6.818;2022-12-20T10:16:46;7.57;;;3.92;;
6406;SDS011;3236;51.022;6.818;2022-12-20T10:19:23;8.40;;;3.95;;
6406;SDS011;3236;51.022;6.818;2022-12-20T10:22:06;4.13;;;3.33;;
6406;SDS011;3236;51.022;6.818;2022-12-20T10:24:51;8.32;;;3.42;;
6406;SDS011;3236;51.022;6.818;2022-12-20T10:27:19;3.72;;;2.80;;
6406;SDS011;3236;51.022;6.818;2022-12-20T10:29:49;6.47;;;3.58;;
6406;SDS011;3236;51.022;6.818;2022-12-20T10:32:22;5.85;;;3.38;;
6406;SDS011;3236;51.022;6.818;2022-12-20T10:35:23;8.68;;;3.65;;
6406;SDS011;3236;51.022;6.818;2022-12-20T10:38:00;5.35;;;3.15;;
6406;SDS011;3236;51.022;6.818;2022-12-20T10:40:29;6.82;;;2.88;;
6406;SDS011;3236;51.022;6.818;2022-12-20T10:42:59;6.10;;;3.03;;
6406;SDS011;3236;51.022;6.818;2022-12-20T10:45:31;3.15;;;2.83;;
6406;SDS011;3236;51.022;6.818;2022-12-20T10:48:01;6.80;;;2.83;;
6406;SDS011;3236;51.022;6.818;2022-12-20T10:50:29;7.82;;;2.70;;
6406;SDS011;3236;51.022;6.818;2022-12-20T10:53:11;8.60;;;2.83;;
6406;SDS011;3236;51.022;6.818;2022-12-20T10:55:43;6.13;;;2.60;;
6406;SDS011;3236;51.022;6.818;2022-12-20T10:58:12;3.65;;;2.60;;
6406;SDS011;3236;51.022;6.818;2022-12-20T11:00:43;8.52;;;2.92;;
6406;SDS011;3236;51.022;6.818;2022-12-20T11:03:15;3.38;;;3.00;;
6406;SDS011;3236;51.022;6.818;2022-12-20T11:05:53;4.28;;;2.10;;
6406;SDS011;3236;51.022;6.818;2022-12-20T11:08:23;3.88;;;2.30;;
6406;SDS011;3236;51.022;6.818;2022-12-20T11:11:00;3.65;;;2.15;;
6406;SDS011;3236;51.022;6.818;2022-12-20T11:13:41;2.60;;;1.83;;
6406;SDS011;3236;51.022;6.818;2022-12-20T11:16:27;5.88;;;2.25;;
6406;SDS011;3236;51.022;6.818;2022-12-20T11:19:02;2.45;;;2.08;;
6406;SDS011;3236;51.022;6.818;2022-12-20T11:21:33;5.90;;;2.10;;
6406;SDS011;3236;51.022;6.818;2022-12-20T11:24:07;6.80;;;2.55;;
6406;SDS011;3236;51.022;6.818;2022-12-20T11:26:51;4.55;;;2.75;;
6406;SDS011;3236;51.022;6.818;2022-12-20T11:29:27;6.20;;;3.35;;
6406;SDS011;3236;51.022;6.818;2022-12-20T11:32:01;7.50;;;3.33;;
6406;SDS011;3236;51.022;6.818;2022-12-20T11:34:38;7.70;;;2.83;;
6406;SDS011;3236;51.022;6.818;2022-12-20T11:37:18;5.00;;;2.95;;
6406;SDS011;3236;51.022;6.818;2022-12-20T11:39:53;4.22;;;2.70;;
6406;SDS011;3236;51.022;6.818;2022-12-20T11:42:31;6.55;;;3.00;;
6406;SDS011;3236;51.022;6.818;2022-12-20T11:45:04;7.63;;;2.58;;
6406;SDS011;3236;51.022;6.818;2022-12-20T11:53:19;8.32;;;2.47;;
6406;SDS011;3236;51.022;6.818;2022-12-20T11:55:49;6.40;;;2.45;;
6406;SDS011;3236;51.022;6.818;2022-12-20T11:58:20;8.40;;;2.63;;
6406;SDS011;3236;51.022;6.818;2022-12-20T12:00:51;3.35;;;2.13;;
6406;SDS011;3236;51.022;6.818;2022-12-20T12:03:22;7.43;;;2.72;;
6406;SDS011;3236;51.022;6.818;2022-12-20T12:05:56;5.07;;;1.90;;
6406;SDS011;3236;51.022;6.818;2022-12-20T12:08:33;6.18;;;1.63;;
6406;SDS011;3236;51.022;6.818;2022-12-20T12:11:05;2.30;;;2.10;;
6406;SDS011;3236;51.022;6.818;2022-12-20T12:13:35;3.80;;;2.20;;
6406;SDS011;3236;51.022;6.818;2022-12-20T12:16:05;6.95;;;2.08;;
6406;SDS011;3236;51.022;6.818;2022-12-20T12:18:36;4.72;;;2.35;;
6406;SDS011;3236;51.022;6.818;2022-12-20T12:21:17;5.72;;;2.42;;
6406;SDS011;3236;51.022;6.818;2022-12-20T12:23:48;5.28;;;2.40;;
6406;SDS011;3236;51.022;6.818;2022-12-20T12:26:21;4.80;;;2.03;;
6406;SDS011;3236;51.022;6.818;2022-12-20T12:28:52;14.38;;;6.68;;
6406;SDS011;3236;51.022;6.818;2022-12-20T12:31:25;6.35;;;2.72;;
6406;SDS011;3236;51.022;6.818;2022-12-20T12:33:59;7.07;;;3.58;;
6406;SDS011;3236;51.022;6.818;2022-12-20T12:36:44;5.93;;;2.63;;
6406;SDS011;3236;51.022;6.818;2022-12-20T12:39:39;5.65;;;2.50;;
6406;SDS011;3236;51.022;6.818;2022-12-20T12:42:17;4.63;;;3.22;;
6406;SDS011;3236;51.022;6.818;2022-12-20T12:45:13;4.43;;;3.10;;
6406;SDS011;3236;51.022;6.818;2022-12-20T12:47:47;5.93;;;3.03;;
6406;SDS011;3236;51.022;6.818;2022-12-20T12:50:20;3.78;;;2.55;;
6406;SDS011;3236;51.022;6.818;2022-12-20T12:52:50;6.00;;;2.80;;
6406;SDS011;3236;51.022;6.818;2022-12-20T12:55:38;4.95;;;2.92;;
6406;SDS011;3236;51.022;6.818;2022-12-20T12:58:14;5.72;;;2.72;;
6406;SDS011;3236;51.022;6.818;2022-12-20T13:01:03;5.20;;;2.67;;
6406;SDS011;3236;51.022;6.818;2022-12-20T13:03:38;6.20;;;2.97;;
6406;SDS011;3236;51.022;6.818;2022-12-20T13:06:52;5.63;;;2.75;;
6406;SDS011;3236;51.022;6.818;2022-12-20T13:09:34;5.47;;;2.60;;
6406;SDS011;3236;51.022;6.818;2022-12-20T13:18:33;5.10;;;3.28;;
6406;SDS011;3236;51.022;6.818;2022-12-20T13:21:17;6.88;;;2.92;;
6406;SDS011;3236;51.022;6.818;2022-12-20T13:23:47;6.93;;;2.80;;
6406;SDS011;3236;51.022;6.818;2022-12-20T13:29:23;5.00;;;2.60;;
6406;SDS011;3236;51.022;6.818;2022-12-20T13:34:51;9.40;;;2.70;;
6406;SDS011;3236;51.022;6.818;2022-12-20T13:37:49;4.22;;;2.90;;
6406;SDS011;3236;51.022;6.818;2022-12-20T13:40:22;9.27;;;4.18;;
6406;SDS011;3236;51.022;6.818;2022-12-20T13:43:01;9.45;;;4.10;;
6406;SDS011;3236;51.022;6.818;2022-12-20T13:45:34;14.48;;;4.57;;
6406;SDS011;3236;51.022;6.818;2022-12-20T13:48:05;10.90;;;4.20;;
6406;SDS011;3236;51.022;6.818;2022-12-20T13:50:35;7.75;;;4.53;;
6406;SDS011;3236;51.022;6.818;2022-12-20T13:53:15;12.97;;;5.73;;
6406;SDS011;3236;51.022;6.818;2022-12-20T13:55:42;16.92;;;7.65;;
6406;SDS011;3236;51.022;6.818;2022-12-20T13:58:13;9.02;;;4.80;;
6406;SDS011;3236;51.022;6.818;2022-12-20T14:00:48;9.52;;;5.25;;
6406;SDS011;3236;51.022;6.818;2022-12-20T14:03:19;12.68;;;5.47;;
6406;SDS011;3236;51.022;6.818;2022-12-20T14:05:49;12.77;;;5.90;;
6406;SDS011;3236;51.022;6.818;2022-12-20T14:08:23;15.18;;;7.47;;
6406;SDS011;3236;51.022;6.818;2022-12-20T14:10:53;17.63;;;6.75;;
6406;SDS011;3236;51.022;6.818;2022-12-20T14:13:26;16.27;;;6.20;;
6406;SDS011;3236;51.022;6.818;2022-12-20T14:15:55;12.50;;;7.88;;
6406;SDS011;3236;51.022;6.818;2022-12-20T14:18:34;14.20;;;6.30;;
6406;SDS011;3236;51.022;6.818;2022-12-20T14:21:03;21.25;;;14.65;;
6406;SDS011;3236;51.022;6.818;2022-12-20T14:23:33;16.60;;;7.68;;
6406;SDS011;3236;51.022;6.818;2022-12-20T14:26:09;12.13;;;7.47;;
6406;SDS011;3236;51.022;6.818;2022-12-20T14:28:40;34.22;;;16.17;;
6406;SDS011;3236;51.022;6.818;2022-12-20T14:31:21;21.75;;;10.70;;
6406;SDS011;3236;51.022;6.818;2022-12-20T14:33:50;11.95;;;7.40;;
6406;SDS011;3236;51.022;6.818;2022-12-20T14:36:26;11.60;;;6.57;;
6406;SDS011;3236;51.022;6.818;2022-12-20T14:38:54;11.45;;;6.30;;
6406;SDS011;3236;51.022;6.818;2022-12-20T14:44:14;9.55;;;6.88;;
6406;SDS011;3236;51.022;6.818;2022-12-20T14:46:46;10.57;;;6.10;;
6406;SDS011;3236;51.022;6.818;2022-12-20T14:49:16;16.00;;;6.72;;
6406;SDS011;3236;51.022;6.818;2022-12-20T14:51:45;18.30;;;7.47;;
6406;SDS011;3236;51.022;6.818;2022-12-20T14:54:15;17.77;;;9.18;;
6406;SDS011;3236;51.022;6.818;2022-12-20T14:56:46;14.68;;;7.88;;
6406;SDS011;3236;51.022;6.818;2022-12-20T15:01:48;12.60;;;7.50;;
6406;SDS011;3236;51.022;6.818;2022-12-20T15:04:20;16.60;;;7.53;;
6406;SDS011;3236;51.022;6.818;2022-12-20T15:06:50;11.75;;;7.03;;
6406;SDS011;3236;51.022;6.818;2022-12-20T15:09:18;20.20;;;7.35;;
6406;SDS011;3236;51.022;6.818;2022-12-20T15:11:46;9.73;;;6.80;;
6406;SDS011;3236;51.022;6.818;2022-12-20T15:14:21;15.02;;;7.28;;
6406;SDS011;3236;51.022;6.818;2022-12-20T15:16:50;13.75;;;7.68;;
6406;SDS011;3236;51.022;6.818;2022-12-20T15:19:17;15.38;;;9.75;;
6406;SDS011;3236;51.022;6.818;2022-12-20T15:21:45;15.65;;;7.97;;
6406;SDS011;3236;51.022;6.818;2022-12-20T15:24:13;12.63;;;6.68;;
6406;SDS011;3236;51.022;6.818;2022-12-20T15:26:43;18.90;;;6.57;;
6406;SDS011;3236;51.022;6.818;2022-12-20T15:29:12;15.98;;;7.82;;
6406;SDS011;3236;51.022;6.818;2022-12-20T15:31:44;16.27;;;7.07;;
6406;SDS011;3236;51.022;6.818;2022-12-20T15:34:12;11.63;;;6.18;;
6406;SDS011;3236;51.022;6.818;2022-12-20T15:36:44;17.05;;;6.93;;
6406;SDS011;3236;51.022;6.818;2022-12-20T15:41:42;19.17;;;7.10;;
6406;SDS011;3236;51.022;6.818;2022-12-20T15:44:14;14.50;;;6.65;;
6406;SDS011;3236;51.022;6.818;2022-12-20T15:46:44;14.23;;;7.22;;
6406;SDS011;3236;51.022;6.818;2022-12-20T15:49:13;12.18;;;7.50;;
6406;SDS011;3236;51.022;6.818;2022-12-20T15:51:46;22.60;;;7.68;;
6406;SDS011;3236;51.022;6.818;2022-12-20T15:54:18;16.73;;;7.57;;
6406;SDS011;3236;51.022;6.818;2022-12-20T15:57:04;16.80;;;7.97;;
6406;SDS011;3236;51.022;6.818;2022-12-20T15:59:34;13.13;;;7.15;;
6406;SDS011;3236;51.022;6.818;2022-12-20T16:02:12;19.83;;;8.90;;
6406;SDS011;3236;51.022;6.818;2022-12-20T16:04:43;12.95;;;6.65;;
6406;SDS011;3236;51.022;6.818;2022-12-20T16:07:11;17.15;;;7.93;;